TimeMDT,TemperatureF,Dew PointF,Humidity,Sea Level PressureIn,VisibilityMPH,Wind Direction,Wind SpeedMPH,Gust SpeedMPH,PrecipitationIn,Events,Conditions,WindDirDegrees,DateUTC
12:53 AM,37.9,36.0,93,29.89,10.0,NW,15.0,-,0.03,Rain,Light Rain,320,2013-05-20 06:53:00
2:53 AM,37.9,36.0,93,29.89,10.0,WNW,10.4,-,0.01,,Overcast,290,2013-05-20 08:53:00
3:51 AM,39.2,35.6,87,30.02,10.0,West,10.4,-,N/A,,Overcast,280,2013-05-20 09:51:00
3:53 AM,39.0,36.0,89,29.89,10.0,West,10.4,-,N/A,,Overcast,270,2013-05-20 09:53:00
4:22 AM,37.4,35.6,93,30.01,10.0,WSW,12.7,-,0.00,Rain,Light Rain,250,2013-05-20 10:22:00
4:53 AM,37.0,36.0,96,29.91,10.0,WSW,9.2,-,0.00,Rain,Light Rain,250,2013-05-20 10:53:00
5:38 AM,39.2,37.4,93,30.02,10.0,WNW,8.1,-,0.01,Rain,Light Rain,290,2013-05-20 11:38:00
5:53 AM,41.0,39.0,93,29.93,10.0,NW,12.7,20.7,0.01,Rain,Light Rain,320,2013-05-20 11:53:00
6:51 AM,41.0,39.2,93,30.04,10.0,NW,15.0,23.0,0.00,,Overcast,320,2013-05-20 12:51:00
6:53 AM,41.0,39.0,93,29.95,10.0,NW,18.4,23.0,0.00,,Overcast,320,2013-05-20 12:53:00
8:53 AM,43.0,39.0,86,29.95,10.0,NW,20.7,28.8,0.00,,Overcast,320,2013-05-20 14:53:00
9:12 AM,44.6,37.4,76,30.06,10.0,NW,23.0,31.1,N/A,,Overcast,320,2013-05-20 15:12:00
9:53 AM,45.0,37.9,76,29.96,10.0,NW,21.9,29.9,N/A,,Overcast,320,2013-05-20 15:53:00
10:12 AM,44.6,37.4,76,30.06,10.0,NNW,20.7,32.2,N/A,,Overcast,330,2013-05-20 16:12:00
10:53 AM,46.9,37.9,71,29.96,10.0,NW,27.6,38.0,N/A,,Overcast,320,2013-05-20 16:53:00
12:53 PM,52.0,35.1,53,29.97,10.0,NNW,23.0,33.4,N/A,,Mostly Cloudy,340,2013-05-20 18:53:00
1:53 PM,50.0,33.1,52,29.98,10.0,North,26.5,34.5,0.00,,Overcast,350,2013-05-20 19:53:00
2:53 PM,55.0,32.0,42,29.96,10.0,NNW,27.6,39.1,N/A,,Mostly Cloudy,340,2013-05-20 20:53:00
3:53 PM,54.0,30.0,40,29.96,10.0,NNW,24.2,40.3,N/A,,Partly Cloudy,330,2013-05-20 21:53:00
4:53 PM,44.1,37.0,76,30.04,10.0,North,20.7,40.3,0.00,Rain,Light Rain,350,2013-05-20 22:53:00
5:53 PM,51.1,32.0,48,29.97,10.0,NNW,19.6,26.5,0.00,,Partly Cloudy,330,2013-05-20 23:53:00
6:53 PM,51.1,30.9,46,29.98,10.0,NNW,17.3,28.8,N/A,,Partly Cloudy,340,2013-05-21 00:53:00
8:53 PM,45.0,30.0,56,30.01,10.0,NNW,15.0,-,N/A,,Overcast,330,2013-05-21 02:53:00
9:53 PM,43.0,30.9,62,30.04,10.0,NW,10.4,-,N/A,,Clear,320,2013-05-21 03:53:00
10:53 PM,39.0,32.0,76,30.06,10.0,WNW,5.8,-,N/A,,Clear,300,2013-05-21 04:53:00
11:53 PM,37.0,32.0,82,30.07,10.0,North,3.5,-,N/A,,Clear,10,2013-05-21 05:53:00